sensor_id;sensor_type;location;lat;lon;timestamp;pressure;altitude;pressure_sealevel;temperature;humidity
72959;BME280;60008;50.826;6.896;2023-07-22T00:01:47;100854.91;;;13.98;100.00
72959;BME280;60008;50.826;6.896;2023-07-22T00:04:45;100847.81;;;13.90;100.00
72959;BME280;60008;50.826;6.896;2023-07-22T00:07:30;100853.69;;;13.86;100.00
72959;BME280;60008;50.826;6.896;2023-07-22T00:10:22;100856.22;;;13.79;100.00
72959;BME280;60008;50.826;6.896;2023-07-22T00:13:12;100856.34;;;13.86;100.00
72959;BME280;60008;50.826;6.896;2023-07-22T00:16:03;100857.09;;;13.94;100.00
72959;BME280;60008;50.826;6.896;2023-07-22T00:18:49;100857.00;;;13.88;100.00
72959;BME280;60008;50.826;6.896;2023-07-22T00:21:41;100857.16;;;13.86;100.00
72959;BME280;60008;50.826;6.896;2023-07-22T00:24:25;100858.34;;;13.84;100.00
72959;BME280;60008;50.826;6.896;2023-07-22T00:27:17;100859.41;;;13.97;100.00
72959;BME280;60008;50.826;6.896;2023-07-22T00:30:02;100859.41;;;13.97;100.00
72959;BME280;60008;50.826;6.896;2023-07-22T00:32:54;100859.38;;;13.83;100.00
72959;BME280;60008;50.826;6.896;2023-07-22T00:35:39;100853.91;;;13.76;100.00
72959;BME280;60008;50.826;6.896;2023-07-22T00:38:31;100848.41;;;13.55;100.00
72959;BME280;60008;50.826;6.896;2023-07-22T00:41:16;100859.16;;;13.39;100.00
72959;BME280;60008;50.826;6.896;2023-07-22T00:44:07;100858.19;;;13.40;100.00
72959;BME280;60008;50.826;6.896;2023-07-22T00:46:56;100857.03;;;13.34;100.00
72959;BME280;60008;50.826;6.896;2023-07-22T00:49:49;100848.88;;;13.36;100.00
72959;BME280;60008;50.826;6.896;2023-07-22T00:52:36;100852.72;;;13.33;100.00
72959;BME280;60008;50.826;6.896;2023-07-22T00:55:28;100850.69;;;13.35;100.00
72959;BME280;60008;50.826;6.896;2023-07-22T00:58:15;100853.41;;;13.27;100.00
72959;BME280;60008;50.826;6.896;2023-07-22T01:01:06;100849.25;;;13.25;100.00
72959;BME280;60008;50.826;6.896;2023-07-22T01:03:52;100855.13;;;13.20;100.00
72959;BME280;60008;50.826;6.896;2023-07-22T01:06:43;100854.06;;;13.29;100.00
72959;BME280;60008;50.826;6.896;2023-07-22T01:09:43;100848.72;;;13.29;100.00
72959;BME280;60008;50.826;6.896;2023-07-22T01:12:34;100838.63;;;13.25;100.00
72959;BME280;60008;50.826;6.896;2023-07-22T01:15:19;100840.75;;;13.29;100.00
72959;BME280;60008;50.826;6.896;2023-07-22T01:18:11;100844.13;;;13.23;100.00
72959;BME280;60008;50.826;6.896;2023-07-22T01:20:56;100835.97;;;13.25;100.00
72959;BME280;60008;50.826;6.896;2023-07-22T01:23:48;100839.69;;;13.38;100.00
72959;BME280;60008;50.826;6.896;2023-07-22T01:26:33;100842.50;;;13.45;100.00
72959;BME280;60008;50.826;6.896;2023-07-22T01:29:25;100839.50;;;13.48;100.00
72959;BME280;60008;50.826;6.896;2023-07-22T01:32:11;100839.34;;;13.41;100.00
72959;BME280;60008;50.826;6.896;2023-07-22T01:35:03;100844.97;;;13.46;100.00
72959;BME280;60008;50.826;6.896;2023-07-22T01:37:48;100845.50;;;13.42;100.00
72959;BME280;60008;50.826;6.896;2023-07-22T01:40:41;100841.81;;;13.43;100.00
72959;BME280;60008;50.826;6.896;2023-07-22T01:43:26;100842.41;;;13.30;100.00
72959;BME280;60008;50.826;6.896;2023-07-22T01:46:17;100832.59;;;13.31;100.00
72959;BME280;60008;50.826;6.896;2023-07-22T01:49:11;100831.47;;;13.25;100.00
72959;BME280;60008;50.826;6.896;2023-07-22T01:51:57;100825.53;;;13.15;100.00
72959;BME280;60008;50.826;6.896;2023-07-22T01:54:48;100827.53;;;13.13;100.00
72959;BME280;60008;50.826;6.896;2023-07-22T01:57:34;100822.06;;;13.15;100.00
72959;BME280;60008;50.826;6.896;2023-07-22T02:00:26;100833.69;;;13.05;100.00
72959;BME280;60008;50.826;6.896;2023-07-22T02:03:11;100823.03;;;13.13;100.00
72959;BME280;60008;50.826;6.896;2023-07-22T02:06:10;100822.56;;;13.10;100.00
72959;BME280;60008;50.826;6.896;2023-07-22T02:09:02;100821.22;;;13.14;100.00
72959;BME280;60008;50.826;6.896;2023-07-22T02:11:59;100820.03;;;13.17;100.00
72959;BME280;60008;50.826;6.896;2023-07-22T02:14:51;100821.50;;;13.19;100.00
72959;BME280;60008;50.826;6.896;2023-07-22T02:17:36;100823.47;;;13.25;100.00
72959;BME280;60008;50.826;6.896;2023-07-22T02:20:27;100817.41;;;13.39;100.00
72959;BME280;60008;50.826;6.896;2023-07-22T02:23:14;100812.09;;;13.39;100.00
72959;BME280;60008;50.826;6.896;2023-07-22T02:26:05;100818.19;;;13.48;100.00
72959;BME280;60008;50.826;6.896;2023-07-22T02:28:56;100819.66;;;13.50;100.00
72959;BME280;60008;50.826;6.896;2023-07-22T02:31:47;100815.47;;;13.56;100.00
72959;BME280;60008;50.826;6.896;2023-07-22T02:34:33;100817.00;;;13.50;100.00
72959;BME280;60008;50.826;6.896;2023-07-22T02:37:25;100824.25;;;13.56;100.00
72959;BME280;60008;50.826;6.896;2023-07-22T02:40:16;100816.31;;;13.48;100.00
72959;BME280;60008;50.826;6.896;2023-07-22T02:43:07;100817.00;;;13.50;100.00
72959;BME280;60008;50.826;6.896;2023-07-22T02:46:03;100821.94;;;13.53;100.00
72959;BME280;60008;50.826;6.896;2023-07-22T02:48:55;100823.59;;;13.54;100.00
72959;BME280;60008;50.826;6.896;2023-07-22T02:51:47;100820.00;;;13.47;100.00
72959;BME280;60008;50.826;6.896;2023-07-22T02:54:41;100817.69;;;13.44;100.00
72959;BME280;60008;50.826;6.896;2023-07-22T02:57:26;100825.34;;;13.47;100.00
72959;BME280;60008;50.826;6.896;2023-07-22T03:00:19;100826.19;;;13.48;100.00
72959;BME280;60008;50.826;6.896;2023-07-22T03:03:10;100823.31;;;13.49;100.00
72959;BME280;60008;50.826;6.896;2023-07-22T03:06:02;100822.69;;;13.47;100.00
72959;BME280;60008;50.826;6.896;2023-07-22T03:08:54;100825.34;;;13.47;100.00
72959;BME280;60008;50.826;6.896;2023-07-22T03:11:46;100821.41;;;13.35;100.00
72959;BME280;60008;50.826;6.896;2023-07-22T03:14:37;100827.03;;;13.40;100.00
72959;BME280;60008;50.826;6.896;2023-07-22T03:17:29;100817.88;;;13.43;100.00
72959;BME280;60008;50.826;6.896;2023-07-22T03:20:14;100826.56;;;13.37;100.00
72959;BME280;60008;50.826;6.896;2023-07-22T03:23:08;100822.38;;;13.42;100.00
72959;BME280;60008;50.826;6.896;2023-07-22T03:25:53;100819.81;;;13.49;100.00
72959;BME280;60008;50.826;6.896;2023-07-22T03:28:44;100823.97;;;13.51;100.00
72959;BME280;60008;50.826;6.896;2023-07-22T03:31:36;100821.91;;;13.39;100.00
72959;BME280;60008;50.826;6.896;2023-07-22T03:34:21;100828.09;;;13.31;100.00
72959;BME280;60008;50.826;6.896;2023-07-22T03:37:13;100819.16;;;13.24;100.00
72959;BME280;60008;50.826;6.896;2023-07-22T03:39:59;100811.34;;;13.23;100.00
72959;BME280;60008;50.826;6.896;2023-07-22T03:42:51;100819.09;;;13.32;100.00
72959;BME280;60008;50.826;6.896;2023-07-22T03:45:43;100822.69;;;13.17;100.00
72959;BME280;60008;50.826;6.896;2023-07-22T03:48:28;100821.91;;;13.00;100.00
72959;BME280;60008;50.826;6.896;2023-07-22T03:51:20;100819.91;;;13.02;100.00
72959;BME280;60008;50.826;6.896;2023-07-22T03:54:12;100819.75;;;13.11;100.00
72959;BME280;60008;50.826;6.896;2023-07-22T03:56:56;100826.19;;;13.17;100.00
72959;BME280;60008;50.826;6.896;2023-07-22T03:59:48;100825.00;;;13.20;100.00
72959;BME280;60008;50.826;6.896;2023-07-22T04:02:33;100827.19;;;13.16;100.00
72959;BME280;60008;50.826;6.896;2023-07-22T04:05:31;100829.88;;;13.08;100.00
72959;BME280;60008;50.826;6.896;2023-07-22T04:08:16;100834.38;;;13.07;100.00
72959;BME280;60008;50.826;6.896;2023-07-22T04:11:07;100838.91;;;13.07;100.00
72959;BME280;60008;50.826;6.896;2023-07-22T04:13:53;100837.03;;;13.07;100.00
72959;BME280;60008;50.826;6.896;2023-07-22T04:16:45;100834.03;;;13.02;100.00
72959;BME280;60008;50.826;6.896;2023-07-22T04:19:36;100828.25;;;12.99;100.00
72959;BME280;60008;50.826;6.896;2023-07-22T04:22:21;100829.41;;;12.96;100.00
72959;BME280;60008;50.826;6.896;2023-07-22T04:25:13;100836.25;;;12.99;100.00
72959;BME280;60008;50.826;6.896;2023-07-22T04:27:58;100838.56;;;12.94;100.00
72959;BME280;60008;50.826;6.896;2023-07-22T04:30:59;100832.88;;;13.05;100.00
72959;BME280;60008;50.826;6.896;2023-07-22T04:33:44;100831.50;;;13.17;100.00
72959;BME280;60008;50.826;6.896;2023-07-22T04:36:36;100838.97;;;13.22;100.00
72959;BME280;60008;50.826;6.896;2023-07-22T04:39:28;100838.56;;;13.33;100.00
72959;BME280;60008;50.826;6.896;2023-07-22T04:42:20;100846.50;;;13.41;100.00
72959;BME280;60008;50.826;6.896;2023-07-22T04:45:06;100838.50;;;13.41;100.00
72959;BME280;60008;50.826;6.896;2023-07-22T04:47:58;100840.53;;;13.39;100.00
72959;BME280;60008;50.826;6.896;2023-07-22T04:50:43;100845.72;;;13.32;100.00
72959;BME280;60008;50.826;6.896;2023-07-22T04:53:39;100837.53;;;13.42;100.00
72959;BME280;60008;50.826;6.896;2023-07-22T04:56:24;100844.56;;;13.57;100.00
72959;BME280;60008;50.826;6.896;2023-07-22T04:59:16;100837.75;;;13.55;100.00
72959;BME280;60008;50.826;6.896;2023-07-22T05:02:01;100841.47;;;13.46;100.00
72959;BME280;60008;50.826;6.896;2023-07-22T05:04:52;100839.53;;;13.62;100.00
72959;BME280;60008;50.826;6.896;2023-07-22T05:07:51;100842.13;;;13.70;100.00
72959;BME280;60008;50.826;6.896;2023-07-22T05:10:37;100847.59;;;13.77;100.00
72959;BME280;60008;50.826;6.896;2023-07-22T05:13:29;100847.09;;;13.73;100.00
72959;BME280;60008;50.826;6.896;2023-07-22T05:16:13;100847.28;;;13.72;100.00
72959;BME280;60008;50.826;6.896;2023-07-22T05:19:05;100839.47;;;13.70;100.00
72959;BME280;60008;50.826;6.896;2023-07-22T05:21:52;100841.66;;;13.67;100.00
72959;BME280;60008;50.826;6.896;2023-07-22T05:24:44;100851.00;;;13.63;100.00
72959;BME280;60008;50.826;6.896;2023-07-22T05:27:29;100837.22;;;13.59;100.00
72959;BME280;60008;50.826;6.896;2023-07-22T05:30:21;100843.44;;;13.75;100.00
72959;BME280;60008;50.826;6.896;2023-07-22T05:33:20;100840.72;;;13.83;100.00
72959;BME280;60008;50.826;6.896;2023-07-22T05:36:05;100844.06;;;13.99;100.00
72959;BME280;60008;50.826;6.896;2023-07-22T05:38:57;100848.28;;;13.94;100.00
72959;BME280;60008;50.826;6.896;2023-07-22T05:41:42;100841.22;;;13.78;100.00
72959;BME280;60008;50.826;6.896;2023-07-22T05:44:34;100846.34;;;14.02;100.00
72959;BME280;60008;50.826;6.896;2023-07-22T05:47:19;100844.72;;;14.16;100.00
72959;BME280;60008;50.826;6.896;2023-07-22T05:50:11;100849.34;;;14.22;100.00
72959;BME280;60008;50.826;6.896;2023-07-22T05:52:55;100842.31;;;14.44;100.00
72959;BME280;60008;50.826;6.896;2023-07-22T05:55:47;100851.69;;;14.54;100.00
72959;BME280;60008;50.826;6.896;2023-07-22T05:58:32;100842.50;;;14.71;100.00
72959;BME280;60008;50.826;6.896;2023-07-22T06:01:24;100843.66;;;15.13;100.00
72959;BME280;60008;50.826;6.896;2023-07-22T06:04:22;100846.81;;;15.02;100.00
72959;BME280;60008;50.826;6.896;2023-07-22T06:07:21;100842.19;;;15.10;100.00
72959;BME280;60008;50.826;6.896;2023-07-22T06:10:13;100848.25;;;15.19;100.00
72959;BME280;60008;50.826;6.896;2023-07-22T06:13:04;100841.47;;;15.16;100.00
72959;BME280;60008;50.826;6.896;2023-07-22T06:15:56;100845.22;;;15.22;100.00
72959;BME280;60008;50.826;6.896;2023-07-22T06:18:41;100835.56;;;15.42;100.00
72959;BME280;60008;50.826;6.896;2023-07-22T06:21:33;100837.63;;;15.82;100.00
72959;BME280;60008;50.826;6.896;2023-07-22T06:24:18;100845.66;;;15.82;100.00
72959;BME280;60008;50.826;6.896;2023-07-22T06:27:10;100841.75;;;16.06;100.00
72959;BME280;60008;50.826;6.896;2023-07-22T06:29:55;100837.31;;;15.92;100.00
72959;BME280;60008;50.826;6.896;2023-07-22T06:32:46;100836.84;;;16.09;100.00
72959;BME280;60008;50.826;6.896;2023-07-22T06:35:38;100835.53;;;15.99;100.00
72959;BME280;60008;50.826;6.896;2023-07-22T06:38:34;100842.47;;;15.93;100.00
72959;BME280;60008;50.826;6.896;2023-07-22T06:41:19;100843.53;;;15.99;100.00
72959;BME280;60008;50.826;6.896;2023-07-22T06:44:11;100846.44;;;16.53;100.00
72959;BME280;60008;50.826;6.896;2023-07-22T06:46:56;100842.19;;;16.65;100.00
72959;BME280;60008;50.826;6.896;2023-07-22T06:49:48;100846.25;;;16.54;100.00
72959;BME280;60008;50.826;6.896;2023-07-22T06:52:33;100848.63;;;16.77;100.00
72959;BME280;60008;50.826;6.896;2023-07-22T06:55:25;100840.34;;;17.06;100.00
72959;BME280;60008;50.826;6.896;2023-07-22T06:58:10;100840.97;;;17.08;100.00
72959;BME280;60008;50.826;6.896;2023-07-22T07:01:02;100838.56;;;17.33;100.00
72959;BME280;60008;50.826;6.896;2023-07-22T07:03:47;100846.47;;;17.54;100.00
72959;BME280;60008;50.826;6.896;2023-07-22T07:06:45;100844.66;;;17.81;100.00
72959;BME280;60008;50.826;6.896;2023-07-22T07:09:35;100847.34;;;18.14;100.00
72959;BME280;60008;50.826;6.896;2023-07-22T07:12:26;100837.63;;;18.13;100.00
72959;BME280;60008;50.826;6.896;2023-07-22T07:15:11;100838.56;;;17.40;100.00
72959;BME280;60008;50.826;6.896;2023-07-22T07:18:03;100839.16;;;17.22;100.00
72959;BME280;60008;50.826;6.896;2023-07-22T07:20:48;100832.81;;;17.43;100.00
72959;BME280;60008;50.826;6.896;2023-07-22T07:23:42;100833.84;;;17.42;100.00
72959;BME280;60008;50.826;6.896;2023-07-22T07:26:34;100843.38;;;17.64;100.00
72959;BME280;60008;50.826;6.896;2023-07-22T07:29:19;100844.25;;;18.17;100.00
72959;BME280;60008;50.826;6.896;2023-07-22T07:32:31;100833.53;;;18.23;100.00
72959;BME280;60008;50.826;6.896;2023-07-22T07:35:15;100840.34;;;18.26;100.00
72959;BME280;60008;50.826;6.896;2023-07-22T07:38:07;100839.66;;;19.21;100.00
72959;BME280;60008;50.826;6.896;2023-07-22T07:41:05;100840.00;;;19.75;100.00
72959;BME280;60008;50.826;6.896;2023-07-22T07:44:03;100837.59;;;19.60;98.60
72959;BME280;60008;50.826;6.896;2023-07-22T07:46:48;100825.94;;;19.35;98.82
72959;BME280;60008;50.826;6.896;2023-07-22T07:49:40;100831.09;;;20.67;88.65
72959;BME280;60008;50.826;6.896;2023-07-22T07:52:32;100825.09;;;23.51;73.26
72959;BME280;60008;50.826;6.896;2023-07-22T07:55:24;100825.13;;;24.51;65.53
72959;BME280;60008;50.826;6.896;2023-07-22T07:58:08;100822.88;;;23.48;65.48
72959;BME280;60008;50.826;6.896;2023-07-22T08:01:00;100815.91;;;24.52;63.70
72959;BME280;60008;50.826;6.896;2023-07-22T08:03:45;100814.69;;;26.52;52.42
72959;BME280;60008;50.826;6.896;2023-07-22T08:06:37;100813.53;;;24.94;55.95
72959;BME280;60008;50.826;6.896;2023-07-22T08:09:35;100807.69;;;24.09;62.53
72959;BME280;60008;50.826;6.896;2023-07-22T08:12:20;100815.81;;;24.64;57.95
72959;BME280;60008;50.826;6.896;2023-07-22T08:15:12;100816.84;;;23.01;59.17
72959;BME280;60008;50.826;6.896;2023-07-22T08:17:57;100822.94;;;22.97;60.53
72959;BME280;60008;50.826;6.896;2023-07-22T08:20:50;100810.22;;;23.37;59.90
72959;BME280;60008;50.826;6.896;2023-07-22T08:23:36;100813.31;;;23.57;58.91
72959;BME280;60008;50.826;6.896;2023-07-22T08:26:28;100812.41;;;23.24;57.61
72959;BME280;60008;50.826;6.896;2023-07-22T08:29:13;100811.63;;;24.01;57.80
72959;BME280;60008;50.826;6.896;2023-07-22T08:32:05;100813.16;;;23.07;61.06
72959;BME280;60008;50.826;6.896;2023-07-22T08:34:51;100810.28;;;24.37;56.87
72959;BME280;60008;50.826;6.896;2023-07-22T08:37:43;100811.22;;;23.20;59.39
72959;BME280;60008;50.826;6.896;2023-07-22T08:40:33;100812.00;;;25.52;53.10
72959;BME280;60008;50.826;6.896;2023-07-22T08:43:27;100807.78;;;24.52;56.41
72959;BME280;60008;50.826;6.896;2023-07-22T08:46:13;100809.38;;;23.65;56.94
72959;BME280;60008;50.826;6.896;2023-07-22T08:49:07;100817.03;;;22.48;61.11
72959;BME280;60008;50.826;6.896;2023-07-22T08:51:54;100819.38;;;21.87;67.27
72959;BME280;60008;50.826;6.896;2023-07-22T08:54:49;100811.25;;;21.87;64.52
72959;BME280;60008;50.826;6.896;2023-07-22T08:57:41;100815.16;;;21.61;66.61
72959;BME280;60008;50.826;6.896;2023-07-22T09:00:33;100813.72;;;21.88;65.68
72959;BME280;60008;50.826;6.896;2023-07-22T09:03:19;100817.72;;;21.98;65.05
72959;BME280;60008;50.826;6.896;2023-07-22T09:06:18;100815.50;;;22.41;62.82
72959;BME280;60008;50.826;6.896;2023-07-22T09:09:03;100806.47;;;23.38;59.92
72959;BME280;60008;50.826;6.896;2023-07-22T09:12:01;100806.09;;;23.63;59.31
72959;BME280;60008;50.826;6.896;2023-07-22T09:14:46;100810.06;;;24.60;57.65
72959;BME280;60008;50.826;6.896;2023-07-22T09:17:39;100809.13;;;22.59;62.31
72959;BME280;60008;50.826;6.896;2023-07-22T09:20:25;100807.84;;;22.61;61.76
72959;BME280;60008;50.826;6.896;2023-07-22T09:23:34;100810.38;;;24.42;56.63
72959;BME280;60008;50.826;6.896;2023-07-22T09:26:19;100796.75;;;26.56;50.49
72959;BME280;60008;50.826;6.896;2023-07-22T09:29:12;100797.13;;;28.02;46.32
72959;BME280;60008;50.826;6.896;2023-07-22T09:31:57;100801.53;;;26.81;46.21
72959;BME280;60008;50.826;6.896;2023-07-22T09:34:55;100796.72;;;25.19;48.92
72959;BME280;60008;50.826;6.896;2023-07-22T09:37:40;100791.63;;;25.81;49.40
72959;BME280;60008;50.826;6.896;2023-07-22T09:40:32;100786.75;;;25.51;47.48
72959;BME280;60008;50.826;6.896;2023-07-22T09:43:17;100795.22;;;23.75;48.97
72959;BME280;60008;50.826;6.896;2023-07-22T09:46:10;100797.69;;;22.91;49.91
72959;BME280;60008;50.826;6.896;2023-07-22T09:49:02;100792.13;;;22.58;54.27
72959;BME280;60008;50.826;6.896;2023-07-22T09:51:54;100801.53;;;22.32;56.46
72959;BME280;60008;50.826;6.896;2023-07-22T09:54:48;100790.69;;;23.63;53.07
72959;BME280;60008;50.826;6.896;2023-07-22T09:57:43;100790.66;;;25.97;44.80
72959;BME280;60008;50.826;6.896;2023-07-22T10:00:34;100787.84;;;27.48;43.61
72959;BME280;60008;50.826;6.896;2023-07-22T10:03:29;100791.81;;;27.10;41.43
72959;BME280;60008;50.826;6.896;2023-07-22T10:06:16;100780.50;;;26.66;43.38
72959;BME280;60008;50.826;6.896;2023-07-22T10:09:15;100783.72;;;25.79;43.46
72959;BME280;60008;50.826;6.896;2023-07-22T10:12:01;100776.63;;;28.35;40.16
72959;BME280;60008;50.826;6.896;2023-07-22T10:14:55;100783.50;;;26.70;41.45
72959;BME280;60008;50.826;6.896;2023-07-22T10:17:42;100786.75;;;26.72;40.99
72959;BME280;60008;50.826;6.896;2023-07-22T10:20:34;100765.53;;;27.76;40.47
72959;BME280;60008;50.826;6.896;2023-07-22T10:23:22;100770.97;;;27.81;38.96
72959;BME280;60008;50.826;6.896;2023-07-22T10:26:17;100767.44;;;27.91;38.36
72959;BME280;60008;50.826;6.896;2023-07-22T10:29:10;100765.53;;;27.61;37.93
72959;BME280;60008;50.826;6.896;2023-07-22T10:32:02;100762.78;;;28.11;37.93
72959;BME280;60008;50.826;6.896;2023-07-22T10:34:47;100758.53;;;28.69;36.60
72959;BME280;60008;50.826;6.896;2023-07-22T10:37:39;100759.50;;;28.14;36.99
72959;BME280;60008;50.826;6.896;2023-07-22T10:40:48;100748.84;;;27.12;38.67
72959;BME280;60008;50.826;6.896;2023-07-22T10:43:34;100751.63;;;27.57;37.66
72959;BME280;60008;50.826;6.896;2023-07-22T10:46:34;100754.81;;;27.09;36.87
72959;BME280;60008;50.826;6.896;2023-07-22T10:49:19;100754.22;;;25.03;40.00
72959;BME280;60008;50.826;6.896;2023-07-22T10:52:11;100746.16;;;25.39;40.19
72959;BME280;60008;50.826;6.896;2023-07-22T10:55:00;100739.47;;;25.79;38.86
72959;BME280;60008;50.826;6.896;2023-07-22T10:57:53;100736.38;;;27.61;37.83
72959;BME280;60008;50.826;6.896;2023-07-22T11:00:47;100746.75;;;26.57;37.46
72959;BME280;60008;50.826;6.896;2023-07-22T11:04:08;100739.34;;;28.20;35.17
72959;BME280;60008;50.826;6.896;2023-07-22T11:07:05;100725.91;;;28.39;36.43
72959;BME280;60008;50.826;6.896;2023-07-22T11:09:57;100721.88;;;29.63;33.22
72959;BME280;60008;50.826;6.896;2023-07-22T11:12:43;100719.56;;;30.33;32.53
72959;BME280;60008;50.826;6.896;2023-07-22T11:15:36;100717.09;;;28.62;31.33
72959;BME280;60008;50.826;6.896;2023-07-22T11:18:39;100706.13;;;29.21;30.38
72959;BME280;60008;50.826;6.896;2023-07-22T11:21:31;100719.56;;;28.54;28.67
72959;BME280;60008;50.826;6.896;2023-07-22T11:24:16;100726.91;;;26.72;31.03
72959;BME280;60008;50.826;6.896;2023-07-22T11:27:08;100712.25;;;26.68;32.45
72959;BME280;60008;50.826;6.896;2023-07-22T11:30:02;100711.81;;;27.26;32.13
72959;BME280;60008;50.826;6.896;2023-07-22T11:32:48;100702.78;;;28.16;32.91
72959;BME280;60008;50.826;6.896;2023-07-22T11:35:42;100699.56;;;27.24;32.41
72959;BME280;60008;50.826;6.896;2023-07-22T11:38:27;100691.34;;;26.78;33.71
72959;BME280;60008;50.826;6.896;2023-07-22T11:41:20;100702.16;;;26.06;35.30
72959;BME280;60008;50.826;6.896;2023-07-22T11:44:16;100693.41;;;25.99;34.95
72959;BME280;60008;50.826;6.896;2023-07-22T11:47:04;100694.59;;;25.39;36.75
72959;BME280;60008;50.826;6.896;2023-07-22T11:49:56;100685.72;;;24.91;37.57
72959;BME280;60008;50.826;6.896;2023-07-22T11:52:41;100687.59;;;24.42;40.26
72959;BME280;60008;50.826;6.896;2023-07-22T11:55:35;100686.63;;;25.28;40.09
72959;BME280;60008;50.826;6.896;2023-07-22T11:58:27;100678.88;;;24.61;39.78
72959;BME280;60008;50.826;6.896;2023-07-22T12:01:19;100677.94;;;24.72;39.83
72959;BME280;60008;50.826;6.896;2023-07-22T12:04:13;100683.91;;;25.28;38.88
72959;BME280;60008;50.826;6.896;2023-07-22T12:07:05;100681.56;;;25.41;39.67
72959;BME280;60008;50.826;6.896;2023-07-22T12:10:07;100672.16;;;25.17;39.64
72959;BME280;60008;50.826;6.896;2023-07-22T12:13:00;100666.69;;;25.12;37.09
72959;BME280;60008;50.826;6.896;2023-07-22T12:16:02;100663.88;;;24.75;37.47
72959;BME280;60008;50.826;6.896;2023-07-22T12:18:55;100665.16;;;24.46;37.46
72959;BME280;60008;50.826;6.896;2023-07-22T12:21:55;100661.94;;;24.98;37.99
72959;BME280;60008;50.826;6.896;2023-07-22T12:24:47;100663.47;;;25.15;38.45
72959;BME280;60008;50.826;6.896;2023-07-22T12:27:39;100668.44;;;25.28;37.14
72959;BME280;60008;50.826;6.896;2023-07-22T12:30:31;100658.81;;;24.84;36.11
72959;BME280;60008;50.826;6.896;2023-07-22T12:33:16;100660.94;;;25.09;37.35
72959;BME280;60008;50.826;6.896;2023-07-22T12:36:08;100660.78;;;25.20;37.81
72959;BME280;60008;50.826;6.896;2023-07-22T12:39:00;100657.56;;;25.23;36.31
72959;BME280;60008;50.826;6.896;2023-07-22T12:41:52;100663.94;;;25.44;37.14
72959;BME280;60008;50.826;6.896;2023-07-22T12:44:37;100657.44;;;25.08;36.39
72959;BME280;60008;50.826;6.896;2023-07-22T12:47:29;100654.47;;;25.10;37.33
72959;BME280;60008;50.826;6.896;2023-07-22T12:50:21;100657.34;;;24.76;36.16
72959;BME280;60008;50.826;6.896;2023-07-22T12:53:13;100650.63;;;24.57;37.68
72959;BME280;60008;50.826;6.896;2023-07-22T12:55:58;100645.03;;;24.64;38.74
72959;BME280;60008;50.826;6.896;2023-07-22T12:58:50;100644.97;;;24.80;37.79
72959;BME280;60008;50.826;6.896;2023-07-22T13:01:42;100640.41;;;24.86;38.32
72959;BME280;60008;50.826;6.896;2023-07-22T13:04:40;100645.69;;;25.29;39.15
72959;BME280;60008;50.826;6.896;2023-07-22T13:07:39;100639.88;;;25.16;38.59
72959;BME280;60008;50.826;6.896;2023-07-22T13:10:31;100632.03;;;24.93;38.94
72959;BME280;60008;50.826;6.896;2023-07-22T13:13:18;100617.00;;;24.53;39.55
72959;BME280;60008;50.826;6.896;2023-07-22T13:16:09;100637.13;;;24.84;39.53
72959;BME280;60008;50.826;6.896;2023-07-22T13:18:54;100630.69;;;24.90;38.44
72959;BME280;60008;50.826;6.896;2023-07-22T13:21:46;100627.47;;;24.71;38.77
72959;BME280;60008;50.826;6.896;2023-07-22T13:24:31;100632.56;;;24.90;39.68
72959;BME280;60008;50.826;6.896;2023-07-22T13:27:23;100624.91;;;24.60;38.82
72959;BME280;60008;50.826;6.896;2023-07-22T13:30:08;100622.09;;;25.03;40.14
72959;BME280;60008;50.826;6.896;2023-07-22T13:33:00;100618.47;;;25.19;38.50
72959;BME280;60008;50.826;6.896;2023-07-22T13:35:51;100615.75;;;24.88;40.05
72959;BME280;60008;50.826;6.896;2023-07-22T13:38:36;100604.06;;;24.87;39.29
72959;BME280;60008;50.826;6.896;2023-07-22T13:41:28;100600.84;;;24.63;39.12
72959;BME280;60008;50.826;6.896;2023-07-22T13:44:14;100589.91;;;25.12;39.79
72959;BME280;60008;50.826;6.896;2023-07-22T13:47:06;100595.25;;;25.02;37.81
72959;BME280;60008;50.826;6.896;2023-07-22T13:49:58;100600.59;;;25.28;37.80
72959;BME280;60008;50.826;6.896;2023-07-22T13:52:43;100596.69;;;25.14;36.97
72959;BME280;60008;50.826;6.896;2023-07-22T13:55:35;100595.38;;;25.17;37.47
72959;BME280;60008;50.826;6.896;2023-07-22T13:58:29;100601.00;;;25.05;35.59
72959;BME280;60008;50.826;6.896;2023-07-22T14:01:14;100587.16;;;25.07;39.27
72959;BME280;60008;50.826;6.896;2023-07-22T14:04:05;100591.88;;;25.21;36.46
72959;BME280;60008;50.826;6.896;2023-07-22T14:06:57;100591.38;;;25.24;36.30
72959;BME280;60008;50.826;6.896;2023-07-22T14:09:49;100589.53;;;25.35;37.99
72959;BME280;60008;50.826;6.896;2023-07-22T14:12:34;100578.34;;;25.26;37.41
72959;BME280;60008;50.826;6.896;2023-07-22T14:15:26;100576.00;;;25.40;36.03
72959;BME280;60008;50.826;6.896;2023-07-22T14:18:11;100575.56;;;25.53;36.15
72959;BME280;60008;50.826;6.896;2023-07-22T14:21:08;100583.00;;;25.36;36.97
72959;BME280;60008;50.826;6.896;2023-07-22T14:23:55;100566.06;;;25.14;36.02
72959;BME280;60008;50.826;6.896;2023-07-22T14:26:47;100566.44;;;25.27;36.14
72959;BME280;60008;50.826;6.896;2023-07-22T14:29:32;100557.44;;;25.22;35.28
72959;BME280;60008;50.826;6.896;2023-07-22T14:32:24;100570.44;;;25.57;35.81
72959;BME280;60008;50.826;6.896;2023-07-22T14:35:09;100555.88;;;25.36;36.40
72959;BME280;60008;50.826;6.896;2023-07-22T14:38:01;100569.66;;;25.66;37.00
72959;BME280;60008;50.826;6.896;2023-07-22T14:40:53;100554.00;;;25.41;36.70
72959;BME280;60008;50.826;6.896;2023-07-22T14:43:38;100562.09;;;25.31;37.12
72959;BME280;60008;50.826;6.896;2023-07-22T14:46:29;100562.94;;;25.37;37.59